sensor_id;sensor_type;location;lat;lon;timestamp;pressure;altitude;pressure_sealevel;temperature;humidity
72061;BME280;59925;52.136;5.420;2023-04-21T00:01:12;101774.06;;;8.47;77.63
72061;BME280;59925;52.136;5.420;2023-04-21T00:03:39;101776.59;;;8.41;77.57
72061;BME280;59925;52.136;5.420;2023-04-21T00:06:07;101773.81;;;8.36;77.94
72061;BME280;59925;52.136;5.420;2023-04-21T00:08:35;101765.44;;;8.33;78.73
72061;BME280;59925;52.136;5.420;2023-04-21T00:11:10;101755.81;;;8.32;79.09
72061;BME280;59925;52.136;5.420;2023-04-21T00:13:36;101756.63;;;8.32;79.34
72061;BME280;59925;52.136;5.420;2023-04-21T00:16:04;101762.19;;;8.31;79.53
72061;BME280;59925;52.136;5.420;2023-04-21T00:18:30;101755.00;;;8.31;80.06
72061;BME280;59925;52.136;5.420;2023-04-21T00:20:57;101740.94;;;8.24;80.38
72061;BME280;59925;52.136;5.420;2023-04-21T00:23:24;101733.38;;;8.21;80.93
72061;BME280;59925;52.136;5.420;2023-04-21T00:25:50;101743.50;;;8.19;81.48
72061;BME280;59925;52.136;5.420;2023-04-21T00:28:17;101746.16;;;8.19;81.70
72061;BME280;59925;52.136;5.420;2023-04-21T00:30:44;101742.91;;;8.17;82.35
72061;BME280;59925;52.136;5.420;2023-04-21T00:33:10;101737.44;;;8.11;83.01
72061;BME280;59925;52.136;5.420;2023-04-21T00:35:37;101742.66;;;8.06;83.34
72061;BME280;59925;52.136;5.420;2023-04-21T00:38:03;101741.03;;;8.05;83.81
72061;BME280;59925;52.136;5.420;2023-04-21T00:40:29;101741.25;;;8.04;84.08
72061;BME280;59925;52.136;5.420;2023-04-21T00:42:56;101736.34;;;8.01;84.38
72061;BME280;59925;52.136;5.420;2023-04-21T00:45:22;101728.25;;;7.95;84.83
72061;BME280;59925;52.136;5.420;2023-04-21T00:47:49;101733.44;;;7.90;85.27
72061;BME280;59925;52.136;5.420;2023-04-21T00:50:15;101732.28;;;7.86;85.59
72061;BME280;59925;52.136;5.420;2023-04-21T00:52:43;101729.03;;;7.84;86.18
72061;BME280;59925;52.136;5.420;2023-04-21T00:55:10;101724.16;;;7.81;86.57
72061;BME280;59925;52.136;5.420;2023-04-21T00:57:36;101722.75;;;7.78;87.07
72061;BME280;59925;52.136;5.420;2023-04-21T01:00:03;101714.38;;;7.75;87.54
72061;BME280;59925;52.136;5.420;2023-04-21T01:02:34;101714.63;;;7.73;87.95
72061;BME280;59925;52.136;5.420;2023-04-21T01:05:00;101717.28;;;7.73;88.41
72061;BME280;59925;52.136;5.420;2023-04-21T01:07:27;101710.09;;;7.74;88.81
72061;BME280;59925;52.136;5.420;2023-04-21T01:09:53;101704.38;;;7.70;88.99
72061;BME280;59925;52.136;5.420;2023-04-21T01:12:20;101699.03;;;7.70;89.46
72061;BME280;59925;52.136;5.420;2023-04-21T01:14:46;101699.63;;;7.72;89.74
72061;BME280;59925;52.136;5.420;2023-04-21T01:17:13;101695.56;;;7.70;89.92
72061;BME280;59925;52.136;5.420;2023-04-21T01:19:41;101693.72;;;7.70;90.32
72061;BME280;59925;52.136;5.420;2023-04-21T01:22:09;101685.34;;;7.66;90.67
72061;BME280;59925;52.136;5.420;2023-04-21T01:24:43;101688.63;;;7.69;90.76
72061;BME280;59925;52.136;5.420;2023-04-21T01:27:18;101690.81;;;7.72;91.13
72061;BME280;59925;52.136;5.420;2023-04-21T01:29:47;101690.81;;;7.72;91.36
72061;BME280;59925;52.136;5.420;2023-04-21T01:32:16;101684.44;;;7.73;91.84
72061;BME280;59925;52.136;5.420;2023-04-21T01:34:43;101679.91;;;7.73;91.72
72061;BME280;59925;52.136;5.420;2023-04-21T01:37:12;101679.91;;;7.73;92.01
72061;BME280;59925;52.136;5.420;2023-04-21T01:39:41;101692.22;;;7.74;91.80
72061;BME280;59925;52.136;5.420;2023-04-21T01:42:08;101669.25;;;7.73;92.24
72061;BME280;59925;52.136;5.420;2023-04-21T01:44:34;101675.63;;;7.72;92.57
72061;BME280;59925;52.136;5.420;2023-04-21T01:47:01;101669.69;;;7.70;92.68
72061;BME280;59925;52.136;5.420;2023-04-21T01:49:28;101666.56;;;7.73;92.71
72061;BME280;59925;52.136;5.420;2023-04-21T01:51:54;101659.38;;;7.74;92.92
72061;BME280;59925;52.136;5.420;2023-04-21T01:54:20;101660.19;;;7.74;93.01
72061;BME280;59925;52.136;5.420;2023-04-21T01:56:47;101659.59;;;7.72;93.26
72061;BME280;59925;52.136;5.420;2023-04-21T01:59:14;101660.63;;;7.71;93.41
72061;BME280;59925;52.136;5.420;2023-04-21T02:01:40;101663.31;;;7.71;93.70
72061;BME280;59925;52.136;5.420;2023-04-21T02:04:07;101667.03;;;7.70;93.88
72061;BME280;59925;52.136;5.420;2023-04-21T02:06:34;101664.13;;;7.72;94.19
72061;BME280;59925;52.136;5.420;2023-04-21T02:09:01;101673.97;;;7.71;94.28
72061;BME280;59925;52.136;5.420;2023-04-21T02:11:27;101665.97;;;7.71;94.30
72061;BME280;59925;52.136;5.420;2023-04-21T02:13:54;101673.78;;;7.73;94.34
72061;BME280;59925;52.136;5.420;2023-04-21T02:16:22;101674.34;;;7.75;94.62
72061;BME280;59925;52.136;5.420;2023-04-21T02:18:52;101676.19;;;7.74;94.83
72061;BME280;59925;52.136;5.420;2023-04-21T02:21:20;101670.88;;;7.74;94.96
72061;BME280;59925;52.136;5.420;2023-04-21T02:23:49;101665.78;;;7.73;94.95
72061;BME280;59925;52.136;5.420;2023-04-21T02:26:17;101671.31;;;7.71;95.15
72061;BME280;59925;52.136;5.420;2023-04-21T02:28:44;101657.16;;;7.71;95.42
72061;BME280;59925;52.136;5.420;2023-04-21T02:31:10;101664.34;;;7.70;95.52
72061;BME280;59925;52.136;5.420;2023-04-21T02:33:37;101665.19;;;7.71;95.57
72061;BME280;59925;52.136;5.420;2023-04-21T02:36:04;101663.19;;;7.66;95.65
72061;BME280;59925;52.136;5.420;2023-04-21T02:38:30;101670.97;;;7.67;96.06
72061;BME280;59925;52.136;5.420;2023-04-21T02:40:57;101658.66;;;7.66;96.13
72061;BME280;59925;52.136;5.420;2023-04-21T02:43:23;101660.53;;;7.66;96.26
72061;BME280;59925;52.136;5.420;2023-04-21T02:45:51;101662.72;;;7.69;96.69
72061;BME280;59925;52.136;5.420;2023-04-21T02:48:17;101661.47;;;7.72;96.57
72061;BME280;59925;52.136;5.420;2023-04-21T02:50:49;101651.59;;;7.72;96.63
72061;BME280;59925;52.136;5.420;2023-04-21T02:53:15;101655.88;;;7.73;96.85
72061;BME280;59925;52.136;5.420;2023-04-21T02:55:42;101657.75;;;7.73;96.68
72061;BME280;59925;52.136;5.420;2023-04-21T02:58:09;101643.81;;;7.71;96.67
72061;BME280;59925;52.136;5.420;2023-04-21T03:00:36;101641.59;;;7.67;97.11
72061;BME280;59925;52.136;5.420;2023-04-21T03:03:02;101647.53;;;7.70;96.97
72061;BME280;59925;52.136;5.420;2023-04-21T03:05:29;101648.81;;;7.67;97.28
72061;BME280;59925;52.136;5.420;2023-04-21T03:07:56;101643.69;;;7.65;97.23
72061;BME280;59925;52.136;5.420;2023-04-21T03:10:22;101640.22;;;7.65;97.42
72061;BME280;59925;52.136;5.420;2023-04-21T03:12:49;101643.09;;;7.63;97.49
72061;BME280;59925;52.136;5.420;2023-04-21T03:15:16;101654.38;;;7.65;97.62
72061;BME280;59925;52.136;5.420;2023-04-21T03:17:44;101651.69;;;7.65;97.66
72061;BME280;59925;52.136;5.420;2023-04-21T03:20:11;101649.84;;;7.66;97.86
72061;BME280;59925;52.136;5.420;2023-04-21T03:22:38;101641.59;;;7.67;97.81
72061;BME280;59925;52.136;5.420;2023-04-21T03:25:05;101628.50;;;7.66;97.99
72061;BME280;59925;52.136;5.420;2023-04-21T03:27:33;101635.69;;;7.65;98.09
72061;BME280;59925;52.136;5.420;2023-04-21T03:29:59;101634.41;;;7.68;98.18
72061;BME280;59925;52.136;5.420;2023-04-21T03:32:26;101646.38;;;7.65;98.06
72061;BME280;59925;52.136;5.420;2023-04-21T03:34:52;101629.06;;;7.68;98.25
72061;BME280;59925;52.136;5.420;2023-04-21T03:37:19;101649.84;;;7.66;98.31
72061;BME280;59925;52.136;5.420;2023-04-21T03:39:45;101629.06;;;7.68;98.20
72061;BME280;59925;52.136;5.420;2023-04-21T03:42:12;101628.50;;;7.66;98.00
72061;BME280;59925;52.136;5.420;2023-04-21T03:44:38;101639.75;;;7.68;98.18
72061;BME280;59925;52.136;5.420;2023-04-21T03:47:05;101634.41;;;7.68;98.18
72061;BME280;59925;52.136;5.420;2023-04-21T03:49:34;101634.19;;;7.70;98.27
72061;BME280;59925;52.136;5.420;2023-04-21T03:52:01;101618.63;;;7.66;98.37
72061;BME280;59925;52.136;5.420;2023-04-21T03:54:27;101614.91;;;7.67;98.55
72061;BME280;59925;52.136;5.420;2023-04-21T03:56:54;101619.09;;;7.63;98.67
72061;BME280;59925;52.136;5.420;2023-04-21T03:59:20;101604.50;;;7.66;98.80
72061;BME280;59925;52.136;5.420;2023-04-21T04:01:47;101611.22;;;7.69;98.50
72061;BME280;59925;52.136;5.420;2023-04-21T04:04:14;101614.47;;;7.71;98.72
72061;BME280;59925;52.136;5.420;2023-04-21T04:06:41;101615.25;;;7.71;98.70
72061;BME280;59925;52.136;5.420;2023-04-21T04:09:08;101628.25;;;7.67;98.62
72061;BME280;59925;52.136;5.420;2023-04-21T04:11:34;101621.44;;;7.72;98.89
72061;BME280;59925;52.136;5.420;2023-04-21T04:14:01;101598.91;;;7.67;98.92
72061;BME280;59925;52.136;5.420;2023-04-21T04:16:28;101604.50;;;7.66;98.98
72061;BME280;59925;52.136;5.420;2023-04-21T04:18:55;101606.91;;;7.67;98.73
72061;BME280;59925;52.136;5.420;2023-04-21T04:21:22;101597.53;;;7.65;98.92
72061;BME280;59925;52.136;5.420;2023-04-21T04:23:49;101602.28;;;7.63;99.07
72061;BME280;59925;52.136;5.420;2023-04-21T04:26:17;101595.56;;;7.60;99.08
72061;BME280;59925;52.136;5.420;2023-04-21T04:28:44;101596.09;;;7.62;99.14
72061;BME280;59925;52.136;5.420;2023-04-21T04:31:11;101602.50;;;7.61;99.34
72061;BME280;59925;52.136;5.420;2023-04-21T04:33:42;101613.75;;;7.63;99.20
72061;BME280;59925;52.136;5.420;2023-04-21T04:36:09;101613.16;;;7.61;99.24
72061;BME280;59925;52.136;5.420;2023-04-21T04:38:37;101600.88;;;7.60;99.55
72061;BME280;59925;52.136;5.420;2023-04-21T04:41:04;101607.63;;;7.63;99.38
72061;BME280;59925;52.136;5.420;2023-04-21T04:43:31;101609.69;;;7.61;99.64
72061;BME280;59925;52.136;5.420;2023-04-21T04:45:58;101604.13;;;7.62;99.49
72061;BME280;59925;52.136;5.420;2023-04-21T04:48:25;101607.63;;;7.63;99.83
72061;BME280;59925;52.136;5.420;2023-04-21T04:50:52;101598.78;;;7.62;99.70
72061;BME280;59925;52.136;5.420;2023-04-21T04:53:18;101598.56;;;7.64;99.79
72061;BME280;59925;52.136;5.420;2023-04-21T04:55:45;101594.84;;;7.65;99.73
72061;BME280;59925;52.136;5.420;2023-04-21T04:58:12;101602.16;;;7.70;100.00
72061;BME280;59925;52.136;5.420;2023-04-21T05:00:39;101608.53;;;7.69;99.59
72061;BME280;59925;52.136;5.420;2023-04-21T05:03:05;101598.09;;;7.67;99.96
72061;BME280;59925;52.136;5.420;2023-04-21T05:05:32;101601.13;;;7.71;99.79
72061;BME280;59925;52.136;5.420;2023-04-21T05:07:58;101597.03;;;7.68;99.88
72061;BME280;59925;52.136;5.420;2023-04-21T05:10:25;101605.63;;;7.70;100.00
72061;BME280;59925;52.136;5.420;2023-04-21T05:12:51;101610.50;;;7.73;99.89
72061;BME280;59925;52.136;5.420;2023-04-21T05:15:18;101618.06;;;7.76;99.95
72061;BME280;59925;52.136;5.420;2023-04-21T05:17:44;101612.72;;;7.76;100.00
72061;BME280;59925;52.136;5.420;2023-04-21T05:20:11;101613.31;;;7.78;100.00
72061;BME280;59925;52.136;5.420;2023-04-21T05:22:38;101622.94;;;7.79;100.00
72061;BME280;59925;52.136;5.420;2023-04-21T05:25:06;101624.09;;;7.83;100.00
72061;BME280;59925;52.136;5.420;2023-04-21T05:27:32;101628.19;;;7.86;100.00
72061;BME280;59925;52.136;5.420;2023-04-21T05:29:59;101625.84;;;7.90;100.00
72061;BME280;59925;52.136;5.420;2023-04-21T05:32:26;101611.47;;;7.91;100.00
72061;BME280;59925;52.136;5.420;2023-04-21T05:34:52;101612.03;;;7.93;100.00
72061;BME280;59925;52.136;5.420;2023-04-21T05:37:19;101614.72;;;7.93;100.00
72061;BME280;59925;52.136;5.420;2023-04-21T05:39:45;101620.59;;;7.95;100.00
72061;BME280;59925;52.136;5.420;2023-04-21T05:42:12;101635.13;;;7.99;100.00
72061;BME280;59925;52.136;5.420;2023-04-21T05:44:38;101635.47;;;8.03;100.00
72061;BME280;59925;52.136;5.420;2023-04-21T05:47:05;101641.19;;;8.06;100.00
72061;BME280;59925;52.136;5.420;2023-04-21T05:49:32;101640.69;;;8.09;100.00
72061;BME280;59925;52.136;5.420;2023-04-21T05:51:59;101639.44;;;8.12;100.00
72061;BME280;59925;52.136;5.420;2023-04-21T05:54:25;101644.09;;;8.17;100.00
72061;BME280;59925;52.136;5.420;2023-04-21T05:56:52;101636.66;;;8.19;100.00
72061;BME280;59925;52.136;5.420;2023-04-21T05:59:18;101641.16;;;8.18;100.00
72061;BME280;59925;52.136;5.420;2023-04-21T06:01:44;101642.53;;;8.21;100.00
72061;BME280;59925;52.136;5.420;2023-04-21T06:04:11;101635.38;;;8.21;100.00
72061;BME280;59925;52.136;5.420;2023-04-21T06:06:38;101635.47;;;8.26;100.00
72061;BME280;59925;52.136;5.420;2023-04-21T06:09:04;101643.25;;;8.28;100.00
72061;BME280;59925;52.136;5.420;2023-04-21T06:11:31;101646.50;;;8.30;100.00
72061;BME280;59925;52.136;5.420;2023-04-21T06:13:58;101639.28;;;8.31;100.00
72061;BME280;59925;52.136;5.420;2023-04-21T06:16:26;101633.72;;;8.32;100.00
72061;BME280;59925;52.136;5.420;2023-04-21T06:18:53;101635.69;;;8.37;100.00
72061;BME280;59925;52.136;5.420;2023-04-21T06:21:19;101638.94;;;8.39;100.00
72061;BME280;59925;52.136;5.420;2023-04-21T06:23:46;101636.03;;;8.40;100.00
72061;BME280;59925;52.136;5.420;2023-04-21T06:26:12;101630.22;;;8.43;100.00
72061;BME280;59925;52.136;5.420;2023-04-21T06:28:39;101636.94;;;8.46;100.00
72061;BME280;59925;52.136;5.420;2023-04-21T06:31:06;101642.44;;;8.51;100.00
72061;BME280;59925;52.136;5.420;2023-04-21T06:33:34;101630.78;;;8.57;100.00
72061;BME280;59925;52.136;5.420;2023-04-21T06:36:01;101633.00;;;8.61;100.00
72061;BME280;59925;52.136;5.420;2023-04-21T06:38:28;101628.09;;;8.69;100.00
72061;BME280;59925;52.136;5.420;2023-04-21T06:40:54;101627.63;;;8.72;100.00
72061;BME280;59925;52.136;5.420;2023-04-21T06:43:21;101627.50;;;8.79;100.00
72061;BME280;59925;52.136;5.420;2023-04-21T06:45:47;101625.63;;;8.80;100.00
72061;BME280;59925;52.136;5.420;2023-04-21T06:48:14;101626.41;;;8.80;100.00
72061;BME280;59925;52.136;5.420;2023-04-21T06:50:40;101634.31;;;8.87;100.00
72061;BME280;59925;52.136;5.420;2023-04-21T06:53:09;101629.91;;;8.93;100.00
72061;BME280;59925;52.136;5.420;2023-04-21T06:55:36;101616.59;;;8.98;100.00
72061;BME280;59925;52.136;5.420;2023-04-21T06:58:03;101610.63;;;9.08;100.00
72061;BME280;59925;52.136;5.420;2023-04-21T07:00:29;101614.97;;;9.26;100.00
72061;BME280;59925;52.136;5.420;2023-04-21T07:02:56;101613.75;;;9.33;100.00
72061;BME280;59925;52.136;5.420;2023-04-21T07:05:23;101617.41;;;9.44;100.00
72061;BME280;59925;52.136;5.420;2023-04-21T07:07:49;101618.38;;;9.55;100.00
72061;BME280;59925;52.136;5.420;2023-04-21T07:10:16;101618.41;;;9.72;100.00
72061;BME280;59925;52.136;5.420;2023-04-21T07:12:45;101619.00;;;9.96;100.00
72061;BME280;59925;52.136;5.420;2023-04-21T07:15:11;101609.22;;;10.24;100.00
72061;BME280;59925;52.136;5.420;2023-04-21T07:17:38;101618.91;;;10.70;99.73
72061;BME280;59925;52.136;5.420;2023-04-21T07:20:05;101617.09;;;10.76;99.10
72061;BME280;59925;52.136;5.420;2023-04-21T07:22:32;101618.59;;;10.66;98.14
72061;BME280;59925;52.136;5.420;2023-04-21T07:24:59;101616.91;;;10.60;97.30
72061;BME280;59925;52.136;5.420;2023-04-21T07:27:26;101608.81;;;10.55;96.97
72061;BME280;59925;52.136;5.420;2023-04-21T07:29:52;101623.97;;;10.44;96.50
72061;BME280;59925;52.136;5.420;2023-04-21T07:32:19;101631.59;;;10.35;96.32
72061;BME280;59925;52.136;5.420;2023-04-21T07:34:45;101632.28;;;10.25;96.27
72061;BME280;59925;52.136;5.420;2023-04-21T07:37:13;101630.66;;;10.24;95.84
72061;BME280;59925;52.136;5.420;2023-04-21T07:39:40;101636.00;;;10.24;96.00
72061;BME280;59925;52.136;5.420;2023-04-21T07:42:06;101630.47;;;10.31;96.06
72061;BME280;59925;52.136;5.420;2023-04-21T07:44:33;101627.03;;;10.36;95.89
72061;BME280;59925;52.136;5.420;2023-04-21T07:47:00;101626.66;;;10.44;96.00
72061;BME280;59925;52.136;5.420;2023-04-21T07:49:27;101625.59;;;10.45;95.86
72061;BME280;59925;52.136;5.420;2023-04-21T07:51:53;101625.75;;;10.61;95.52
72061;BME280;59925;52.136;5.420;2023-04-21T07:54:20;101626.97;;;10.70;95.27
72061;BME280;59925;52.136;5.420;2023-04-21T07:56:46;101625.44;;;10.79;94.77
72061;BME280;59925;52.136;5.420;2023-04-21T07:59:12;101624.50;;;10.91;94.16
72061;BME280;59925;52.136;5.420;2023-04-21T08:01:39;101616.53;;;11.01;93.64
72061;BME280;59925;52.136;5.420;2023-04-21T08:04:05;101617.72;;;11.10;93.30
72061;BME280;59925;52.136;5.420;2023-04-21T08:06:32;101614.00;;;11.16;93.09
72061;BME280;59925;52.136;5.420;2023-04-21T08:08:59;101619.09;;;11.13;92.68
72061;BME280;59925;52.136;5.420;2023-04-21T08:11:25;101611.81;;;11.13;92.01
72061;BME280;59925;52.136;5.420;2023-04-21T08:13:53;101614.19;;;11.04;92.09
72061;BME280;59925;52.136;5.420;2023-04-21T08:16:20;101616.50;;;10.96;91.94
72061;BME280;59925;52.136;5.420;2023-04-21T08:18:46;101623.81;;;11.06;91.60
72061;BME280;59925;52.136;5.420;2023-04-21T08:21:13;101621.22;;;11.11;92.24
72061;BME280;59925;52.136;5.420;2023-04-21T08:23:40;101620.50;;;11.21;91.82
72061;BME280;59925;52.136;5.420;2023-04-21T08:26:07;101613.88;;;11.28;91.79
72061;BME280;59925;52.136;5.420;2023-04-21T08:28:34;101612.22;;;11.60;91.97
72061;BME280;59925;52.136;5.420;2023-04-21T08:31:01;101606.44;;;11.73;91.34
72061;BME280;59925;52.136;5.420;2023-04-21T08:33:27;101614.47;;;11.73;90.39
72061;BME280;59925;52.136;5.420;2023-04-21T08:35:54;101613.88;;;11.66;89.86
72061;BME280;59925;52.136;5.420;2023-04-21T08:38:30;101616.03;;;11.64;89.40
72061;BME280;59925;52.136;5.420;2023-04-21T08:40:58;101624.34;;;11.62;89.86
72061;BME280;59925;52.136;5.420;2023-04-21T08:43:27;101627.34;;;11.71;88.60
72061;BME280;59925;52.136;5.420;2023-04-21T08:45:54;101627.31;;;11.66;88.52
72061;BME280;59925;52.136;5.420;2023-04-21T08:48:21;101623.03;;;11.70;88.78
72061;BME280;59925;52.136;5.420;2023-04-21T08:50:50;101621.44;;;11.69;88.86
72061;BME280;59925;52.136;5.420;2023-04-21T08:53:17;101616.84;;;11.64;88.74
72061;BME280;59925;52.136;5.420;2023-04-21T08:55:44;101620.09;;;11.72;88.72
72061;BME280;59925;52.136;5.420;2023-04-21T08:58:16;101616.53;;;11.61;88.85
72061;BME280;59925;52.136;5.420;2023-04-21T09:00:42;101613.59;;;11.62;88.59
72061;BME280;59925;52.136;5.420;2023-04-21T09:03:09;101615.28;;;11.74;88.65
72061;BME280;59925;52.136;5.420;2023-04-21T09:06:01;101610.59;;;11.96;88.45
72061;BME280;59925;52.136;5.420;2023-04-21T09:08:28;101604.03;;;12.20;88.40
72061;BME280;59925;52.136;5.420;2023-04-21T09:10:56;101614.41;;;12.54;88.26
72061;BME280;59925;52.136;5.420;2023-04-21T09:13:33;101616.25;;;12.53;86.07
72061;BME280;59925;52.136;5.420;2023-04-21T09:16:05;101610.63;;;12.50;86.04
72061;BME280;59925;52.136;5.420;2023-04-21T09:18:40;101608.78;;;12.66;86.25
72061;BME280;59925;52.136;5.420;2023-04-21T09:21:11;101613.94;;;12.88;86.04
72061;BME280;59925;52.136;5.420;2023-04-21T09:23:40;101610.75;;;13.12;85.49
72061;BME280;59925;52.136;5.420;2023-04-21T09:26:08;101612.94;;;13.25;85.27
72061;BME280;59925;52.136;5.420;2023-04-21T09:28:35;101611.09;;;13.41;84.41
72061;BME280;59925;52.136;5.420;2023-04-21T09:31:01;101608.13;;;13.58;83.64
72061;BME280;59925;52.136;5.420;2023-04-21T09:33:32;101618.84;;;13.79;82.66
72061;BME280;59925;52.136;5.420;2023-04-21T09:36:19;101612.16;;;13.51;83.16
72061;BME280;59925;52.136;5.420;2023-04-21T09:38:48;101612.41;;;13.54;82.16
72061;BME280;59925;52.136;5.420;2023-04-21T09:41:16;101609.72;;;13.33;81.07
72061;BME280;59925;52.136;5.420;2023-04-21T09:43:43;101612.13;;;13.25;80.89
72061;BME280;59925;52.136;5.420;2023-04-21T09:46:10;101613.19;;;13.18;81.89
72061;BME280;59925;52.136;5.420;2023-04-21T09:48:42;101611.06;;;13.36;82.19
72061;BME280;59925;52.136;5.420;2023-04-21T09:51:14;101600.03;;;13.58;81.19
72061;BME280;59925;52.136;5.420;2023-04-21T09:53:59;101596.53;;;13.53;81.35
72061;BME280;59925;52.136;5.420;2023-04-21T09:56:28;101588.44;;;13.68;80.79
72061;BME280;59925;52.136;5.420;2023-04-21T09:58:57;101589.78;;;13.76;80.49
72061;BME280;59925;52.136;5.420;2023-04-21T10:01:28;101590.28;;;13.83;80.07
72061;BME280;59925;52.136;5.420;2023-04-21T10:03:55;101591.91;;;13.79;79.94
72061;BME280;59925;52.136;5.420;2023-04-21T10:06:22;101591.66;;;13.70;79.66
72061;BME280;59925;52.136;5.420;2023-04-21T10:08:49;101591.63;;;13.86;79.00
72061;BME280;59925;52.136;5.420;2023-04-21T10:11:17;101585.94;;;13.98;78.99
72061;BME280;59925;52.136;5.420;2023-04-21T10:13:44;101590.19;;;14.19;79.19
72061;BME280;59925;52.136;5.420;2023-04-21T10:16:11;101595.53;;;14.35;78.57
72061;BME280;59925;52.136;5.420;2023-04-21T10:18:42;101595.50;;;14.40;77.47
72061;BME280;59925;52.136;5.420;2023-04-21T10:21:11;101593.91;;;14.39;76.67
72061;BME280;59925;52.136;5.420;2023-04-21T10:23:46;101587.97;;;14.32;74.87
72061;BME280;59925;52.136;5.420;2023-04-21T10:26:17;101584.25;;;14.22;77.15
72061;BME280;59925;52.136;5.420;2023-04-21T10:28:55;101577.19;;;14.32;76.64
72061;BME280;59925;52.136;5.420;2023-04-21T10:39:32;101577.81;;;15.13;73.86
72061;BME280;59925;52.136;5.420;2023-04-21T10:47:28;101576.38;;;14.92;72.26
72061;BME280;59925;52.136;5.420;2023-04-21T10:49:56;101564.88;;;14.70;72.61
72061;BME280;59925;52.136;5.420;2023-04-21T10:52:32;101554.84;;;14.81;74.86
72061;BME280;59925;52.136;5.420;2023-04-21T10:55:05;101560.41;;;14.95;73.95
72061;BME280;59925;52.136;5.420;2023-04-21T10:57:33;101554.25;;;14.84;74.63
72061;BME280;59925;52.136;5.420;2023-04-21T11:00:00;101560.09;;;14.97;73.70
72061;BME280;59925;52.136;5.420;2023-04-21T11:02:31;101563.06;;;15.00;73.60
72061;BME280;59925;52.136;5.420;2023-04-21T11:05:01;101556.06;;;14.99;73.52
72061;BME280;59925;52.136;5.420;2023-04-21T11:07:28;101547.97;;;14.99;72.50
72061;BME280;59925;52.136;5.420;2023-04-21T11:10:00;101542.91;;;14.88;72.91
72061;BME280;59925;52.136;5.420;2023-04-21T11:12:32;101539.44;;;14.82;72.53
72061;BME280;59925;52.136;5.420;2023-04-21T11:15:02;101531.75;;;14.99;73.00
72061;BME280;59925;52.136;5.420;2023-04-21T11:17:29;101525.81;;;15.32;71.53
72061;BME280;59925;52.136;5.420;2023-04-21T11:19:56;101527.97;;;15.30;71.38
72061;BME280;59925;52.136;5.420;2023-04-21T11:22:24;101525.22;;;15.35;71.49
72061;BME280;59925;52.136;5.420;2023-04-21T11:24:56;101528.03;;;15.25;71.15
72061;BME280;59925;52.136;5.420;2023-04-21T11:27:26;101535.44;;;15.14;70.78
72061;BME280;59925;52.136;5.420;2023-04-21T11:29:53;101519.03;;;15.05;71.26
72061;BME280;59925;52.136;5.420;2023-04-21T11:32:20;101522.50;;;15.06;71.42
72061;BME280;59925;52.136;5.420;2023-04-21T11:34:46;101510.91;;;15.05;70.63
72061;BME280;59925;52.136;5.420;2023-04-21T11:37:15;101514.22;;;14.97;70.37
72061;BME280;59925;52.136;5.420;2023-04-21T11:39:43;101511.25;;;14.98;70.52
72061;BME280;59925;52.136;5.420;2023-04-21T11:42:09;101503.84;;;15.09;70.72
72061;BME280;59925;52.136;5.420;2023-04-21T11:44:41;101502.41;;;15.22;70.67
72061;BME280;59925;52.136;5.420;2023-04-21T11:52:27;101488.38;;;15.69;70.05
72061;BME280;59925;52.136;5.420;2023-04-21T11:57:32;101481.25;;;16.79;66.82
72061;BME280;59925;52.136;5.420;2023-04-21T12:00:00;101478.25;;;17.13;66.09
72061;BME280;59925;52.136;5.420;2023-04-21T12:02:29;101465.91;;;17.07;64.87
72061;BME280;59925;52.136;5.420;2023-04-21T12:05:10;101467.72;;;16.79;65.35
72061;BME280;59925;52.136;5.420;2023-04-21T12:07:39;101461.97;;;16.66;65.87
72061;BME280;59925;52.136;5.420;2023-04-21T12:10:11;101463.25;;;16.69;66.09
72061;BME280;59925;52.136;5.420;2023-04-21T12:12:40;101466.56;;;16.66;64.66
72061;BME280;59925;52.136;5.420;2023-04-21T12:15:09;101464.03;;;16.36;65.45
72061;BME280;59925;52.136;5.420;2023-04-21T12:17:43;101473.06;;;16.65;64.63
72061;BME280;59925;52.136;5.420;2023-04-21T12:20:11;101461.81;;;16.58;64.47
72061;BME280;59925;52.136;5.420;2023-04-21T12:22:38;101453.31;;;16.64;64.70
72061;BME280;59925;52.136;5.420;2023-04-21T12:25:05;101456.06;;;16.78;64.16
72061;BME280;59925;52.136;5.420;2023-04-21T12:27:31;101448.75;;;16.79;63.65
72061;BME280;59925;52.136;5.420;2023-04-21T12:29:58;101454.28;;;17.21;64.64
72061;BME280;59925;52.136;5.420;2023-04-21T12:32:24;101451.47;;;17.68;61.66
72061;BME280;59925;52.136;5.420;2023-04-21T12:34:51;101446.94;;;17.91;62.23
72061;BME280;59925;52.136;5.420;2023-04-21T12:37:18;101442.59;;;18.04;60.54
72061;BME280;59925;52.136;5.420;2023-04-21T12:39:44;101442.25;;;18.19;59.94
72061;BME280;59925;52.136;5.420;2023-04-21T12:42:11;101428.63;;;17.97;59.77
72061;BME280;59925;52.136;5.420;2023-04-21T12:44:37;101421.50;;;17.87;61.19
72061;BME280;59925;52.136;5.420;2023-04-21T12:47:05;101425.00;;;17.51;62.12
72061;BME280;59925;52.136;5.420;2023-04-21T12:49:32;101426.28;;;17.53;61.83
72061;BME280;59925;52.136;5.420;2023-04-21T12:51:58;101421.78;;;17.49;60.50
72061;BME280;59925;52.136;5.420;2023-04-21T12:54:25;101418.25;;;17.06;62.53
72061;BME280;59925;52.136;5.420;2023-04-21T12:56:51;101409.91;;;17.03;62.51
72061;BME280;59925;52.136;5.420;2023-04-21T12:59:18;101416.94;;;17.04;61.58
72061;BME280;59925;52.136;5.420;2023-04-21T13:01:44;101416.66;;;16.72;62.33
72061;BME280;59925;52.136;5.420;2023-04-21T13:04:11;101412.91;;;16.68;63.47
72061;BME280;59925;52.136;5.420;2023-04-21T13:06:38;101408.84;;;16.84;63.30
72061;BME280;59925;52.136;5.420;2023-04-21T13:09:05;101406.19;;;16.98;63.61
72061;BME280;59925;52.136;5.420;2023-04-21T13:11:32;101402.06;;;17.01;61.55
72061;BME280;59925;52.136;5.420;2023-04-21T13:13:59;101393.53;;;16.94;62.28
72061;BME280;59925;52.136;5.420;2023-04-21T13:16:25;101396.91;;;17.33;61.39
72061;BME280;59925;52.136;5.420;2023-04-21T13:18:55;101393.06;;;17.34;60.27